Terminal Aerodrome Forecast
Issued by NWS Nashville, TN

Home | Current Version | Previous Version | Text Only | Print | Product List | Glossary On
Versions: 1 2 3 4 5 6 7 8 9 10 11 12 13 14 15 16 17 18 19 20 21 22 23 24 25 26 27 28 29 30 31 32 33 34 35 36 37
938
FTUS44 KOHX 231740
TAFCSV
TAF
KCSV 231740Z 2318/2418 20010G24KT P6SM SCT023 BKN035 OVC045
     FM232000 19020G30KT 5SM SHRA VCTS BKN030CB BKN040 OVC060
     FM240000 24011KT 5SM -SHRA BR VCSH OVC015
     FM240300 27009KT 6SM BR OVC015
     FM240600 28006KT 6SM BR OVC050
     FM241000 32005KT 6SM BR OVC100
     FM241200 33005KT P6SM SKC=

USA.gov is the U.S. government's official web portal to all federal, state and local government web resources and services.